Aktualne dane pomiarowe

Uwaga, wersja testowa! Automatyczne pobieranie danych za pomocą narzędzi lub skryptów to umożliwiających jest zabronione.

Dane meteo z obszaru Polski uzyskane na podstawie depesz SYNOP pobieranych co godzinę z NWS. Najedź myszką na symbol przedstawiony w tabeli, aby uzyskać informacje co do jego znaczenia. Prosimy pamiętać, że to testowa wersja strony, która jeszcze nie jest ukończona. Stworzono również jest krótki FAQ dotyczący korzystania z tej podstrony Anomalie temperatury w chwili obecnej odniesione są do okresu referencyjnego 1951-2016. Okres ten będzie później zmieniony na 1981-2010. Kliknij ikonę aby pobrać plik CSV. Kliknij ikonę aby wygenerować mapę synoptyczną dla danego terminu.

Wybierz Datę:    

        

Bielsko-Biała (12600)

Dane terminowe dla wybranej stacji. Kliknij datę, aby otrzymać dane z tego terminu dla wszystkich stacji.

TemperaturaZachmurzenieWiatrCiśnienieOpadyPogoda
 Data t td wb tx tn tg rh  Nt Nl Cl Cm Ch ws wd g1 g2 wx mslp ppp ch 24h 12h t ww ww w1 w2  
2019-06-22 23:00:00 19.3 15.2 16.5--- 7720.0wxwxwx3wx--31018.1 971.7 -0.1---------
2019-06-22 22:00:00 19.5 14.9 16.4--- 7520.0wxwxwx3wx--31018.3 971.9 -0.1---------
2019-06-22 21:00:00 20.0 15.0 16.7--- 7320.0wxwxwx3wx--31018.0 971.7 -0.2---------
2019-06-22 20:00:00 20.1 15.1 16.7--- 7320.0wxwxwx4wx--41018.1 971.8 -0.3---------
2019-06-22 19:00:00 19.0 15.3 16.5--- 7930.0wxwxwxwxwx2wx--21018.5 972.0 -0.4---------
2019-06-22 18:00:00 20.3 15.7 17.2 23.3 18.7- 7540.0wxwxwxwxwx2wx-921018.2 971.9 -0.9--12wx-w1w2--
2019-06-22 17:00:00 20.9 15.4 17.2--- 7140.0wxwxwxwxwx2wx--21018.3 972.1 -1.0---------
2019-06-22 16:00:00 20.9 15.7 17.4--- 7230.0wxwxwxwxwx2wx--21018.6 972.4 -1.1---wx-w1--
2019-06-22 15:00:00 21.2 15.5 17.4--- 7025.0wxwxwxwx3wx-931019.0 972.8 -1.2---wx-w1--
2019-06-22 14:00:00 22.0 15.1 17.5--- 6515.0wxwxwxwxwx4wx-941019.2 973.1 -0.9---wx---
2019-06-22 13:00:00 22.3 14.9 17.5--- 6325.0wxwxwxwx4wx--41019.5 973.5 -0.8---wx---
2019-06-22 12:00:00 20.6 15.6 17.2--- 7310.0wxwxwxwx5wx---1020.3 974.0 -0.4---wx---
2019-06-22 11:00:00 22.6 14.9 17.6--- 6230.0wxwxwxwxwx3wx---1020.0 974.0 -0.2---------
2019-06-22 10:00:00 22.6 14.7 17.5--- 6130.0wxwxwxwxwx2wx--21020.3 974.3 0.1---------
2019-06-22 09:00:00 21.8 13.9 16.7--- 6130.0wxwxwxwxwx4wx--41020.6 974.4 0.3---------
2019-06-22 08:00:00 20.7 14.6 16.7--- 6820.0wxwxwxwxwx4wx--41020.5 974.2 0.3---------
2019-06-22 07:00:00 19.4 16.2 17.2--- 826.0wxwxwxwxwx2wx--21020.8 974.2 0.8---wx---
2019-06-22 06:00:00 19.1 16.3 17.1 19.1 15.3 14 845.0wxwxwxwxwx1wx--11020.7 974.1 0.7 4.5 0.012wx-- 6.3
2019-06-22 05:00:00 17.5 16.4 16.7--- 935.0wxwxwxwxwx1wx--11020.7 973.9 1.1---wx---
2019-06-22 04:00:00 16.0 15.4 15.5--- 964.0wxwxwxwx1wx--11020.5 973.4 0.8---wx---
2019-06-22 03:00:00 15.8 15.2 15.3--- 966.0wxwxwx1wx--11020.5 973.4 1.0---wx---
2019-06-22 02:00:00 15.5 14.7 14.9--- 9510.0wxwxwx1wx--11019.9 972.8 0.7---------
2019-06-22 01:00:00 15.8 15.0 15.2--- 9510.0wxwxwx1wx--11019.7 972.6 0.5---------
2019-06-22 00:00:00 15.6 14.3 14.7--- 9220.0wxwxwx1wx--11019.5 972.4 0.6- 0.06------
2019-06-21 23:00:00 16.0 14.7 15.1--- 9215.0wxwxwxwx1wx--11019.1 972.1 0.5---------
2019-06-21 22:00:00 16.9 15.8 16.1--- 9320.0wxwxwx2wx--21019.0 972.1 1.0---------
2019-06-21 21:00:00 16.8 15.8 16.1--- 9410.0wxwxwxwxwx1wx--11018.7 971.8 1.4---------
2019-06-21 20:00:00 17.4 16.3 16.6--- 9310.0wxwxwxwx2wx--21018.4 971.6 1.6---------
2019-06-21 19:00:00 17.3 15.5 16.0--- 8930.0wxwxwxwxwx1wx--11017.8 971.1 0.7---------
2019-06-21 18:00:00 18.5 16.1 16.8 25.0 17.3- 8650.0wxwxwxwxwx1wx--11016.9 970.4 -0.2- 5.012wx-w1w2--
2019-06-21 17:00:00 20.3 15.7 17.2--- 7530.0wxwxwxwxwx0----1016.2 970.0 1.0---wx---
2019-06-21 16:00:00 18.2 17.0 17.3--- 9320.0wxwxwxwx2wx--21017.0 970.4 1.0---wx-w1w2--
2019-06-21 15:00:00 17.5 14.9 15.7--- 855.0wx-2wx---1017.3 970.6 1.7---------
2019-06-21 14:00:00 23.1 16.4 18.6--- 6620.0wxwxwxwx2wx--21014.7 969.0 -0.6---------
2019-06-21 13:00:00 22.8 15.9 18.2--- 6520.0wxwxwxwx2wx--21015.2 969.4 -0.2---------
2019-06-21 12:00:00 22.8 17.3 19.0--- 7130.0wxwxwx3wx--31014.7 968.9 -0.8- 0.06wx-w1--
2019-06-21 11:00:00 24.8 14.9 18.5--- 5420.0wxwxwxwxwx2wx---1015.1 969.6 0.1---wx-w1--
2019-06-21 10:00:00 23.9 15.4 18.4--- 5930.0wxwxwxwx1wx---1015.2 969.6 0.2---------
2019-06-21 09:00:00 23.2 15.0 17.9--- 6030.0wxwxwxwxwx2wx--21015.4 969.7 0.5---------
2019-06-21 08:00:00 22.8 14.6 17.5--- 6030.0wxwxwxwx2wx--21015.3 969.5 0.8---------
2019-06-21 07:00:00 22.2 13.8 16.9--- 5930.0wx-wx2wx--21015.3 969.4 1.0---------
2019-06-21 06:00:00 21.7 13.8 16.6 21.9 15.6 14 6130.0wxwxwxwx4wx--41015.1 969.2 1.1 0.7 0.012----- 1.6
2019-06-21 05:00:00 18.6 16.0 16.8--- 8520.0wxwxwxwx0---01015.1 968.7 0.9---------
2019-06-21 04:00:00 17.9 16.1 16.6--- 8920.0wxwxwxwxwx1wx--11014.9 968.4 1.3---------
2019-06-21 03:00:00 17.3 14.0 15.1--- 8130.0wxwxwxwxwx2wx--21014.7 968.1 1.1---------
2019-06-21 02:00:00 15.6 14.1 14.5--- 9120.0wxwxwxwxwx1wx--11014.7 967.8 0.7---------
2019-06-21 01:00:00 17.3 14.2 15.2--- 8230.0wx-wxwx1wx--11013.7 967.1 -0.1---------
2019-06-21 00:00:00 17.9 14.2 15.4--- 7930.0wx-wxwx2wx-721013.5 967.0 0.2- 0.06------
1.8 ms

 

Print Friendly, PDF & Email